createdAt,value
2018-05-08T00:01:45.038Z,4.23
2018-05-08T00:04:12.539Z,4.37
2018-05-08T00:06:40.831Z,4.43
2018-05-08T00:09:09.113Z,4.07
2018-05-08T00:11:37.389Z,4.20
2018-05-08T00:14:05.692Z,5.17
2018-05-08T00:16:33.218Z,4.20
2018-05-08T00:19:01.483Z,4.43
2018-05-08T00:21:28.979Z,4.50
2018-05-08T00:23:56.506Z,3.80
2018-05-08T00:26:24.771Z,5.13
2018-05-08T00:28:52.286Z,4.27
2018-05-08T00:31:19.788Z,4.07
2018-05-08T00:33:47.309Z,4.40
2018-05-08T00:36:14.806Z,4.20
2018-05-08T00:38:42.327Z,4.40
2018-05-08T00:41:09.817Z,4.20
2018-05-08T00:43:37.567Z,4.50
2018-05-08T00:46:05.068Z,4.67
2018-05-08T00:48:33.335Z,4.67
2018-05-08T00:51:00.864Z,3.70
2018-05-08T00:53:28.362Z,3.70
2018-05-08T00:55:56.643Z,4.03
2018-05-08T00:58:24.130Z,3.93
2018-05-08T01:00:51.643Z,3.40
2018-05-08T01:03:19.130Z,5.00
2018-05-08T01:05:47.400Z,3.90
2018-05-08T01:08:14.888Z,4.20
2018-05-08T01:10:42.389Z,3.70
2018-05-08T01:13:09.878Z,4.17
2018-05-08T01:15:38.234Z,4.40
2018-05-08T01:18:05.786Z,4.83
2018-05-08T01:20:33.285Z,4.70
2018-05-08T01:23:01.559Z,4.67
2018-05-08T01:25:29.830Z,4.73
2018-05-08T01:27:58.119Z,4.00
2018-05-08T01:30:26.375Z,4.30
2018-05-08T01:32:53.878Z,4.43
2018-05-08T01:35:22.155Z,4.13
2018-05-08T01:37:49.667Z,4.13
2018-05-08T01:40:17.161Z,4.20
2018-05-08T01:42:44.641Z,3.67
2018-05-08T01:45:12.152Z,3.70
2018-05-08T01:47:40.415Z,3.77
2018-05-08T01:50:07.977Z,3.87
2018-05-08T01:52:35.690Z,3.50
2018-05-08T01:55:03.266Z,3.37
2018-05-08T01:57:31.538Z,3.43
2018-05-08T01:59:59.061Z,3.23
2018-05-08T02:02:27.319Z,3.33
2018-05-08T02:04:54.831Z,3.90
2018-05-08T02:07:22.322Z,3.23
2018-05-08T02:09:49.832Z,4.10
2018-05-08T02:12:17.355Z,3.77
2018-05-08T02:14:44.841Z,3.63
2018-05-08T02:17:13.334Z,3.30
2018-05-08T02:19:40.834Z,3.20
2018-05-08T02:22:08.348Z,3.57
2018-05-08T02:24:35.848Z,3.67
2018-05-08T02:27:03.388Z,3.20
2018-05-08T02:29:30.881Z,3.40
2018-05-08T02:31:58.370Z,3.93
2018-05-08T02:34:26.659Z,3.40
2018-05-08T02:36:54.911Z,3.17
2018-05-08T02:39:22.430Z,3.20
2018-05-08T02:41:49.931Z,3.40
2018-05-08T02:44:17.454Z,3.67
2018-05-08T02:46:44.952Z,3.37
2018-05-08T02:49:13.239Z,3.97
2018-05-08T02:51:41.494Z,3.23
2018-05-08T02:54:09.011Z,3.80
2018-05-08T02:56:36.508Z,3.37
2018-05-08T02:59:04.002Z,3.13
2018-05-08T03:01:31.528Z,3.40
2018-05-08T03:03:59.022Z,3.70
2018-05-08T03:06:26.565Z,3.90
2018-05-08T03:08:54.835Z,3.00
2018-05-08T03:11:22.342Z,3.57
2018-05-08T03:13:49.833Z,3.40
2018-05-08T03:16:17.345Z,3.00
2018-05-08T03:18:44.838Z,2.70
2018-05-08T03:21:12.333Z,3.10
2018-05-08T03:23:39.848Z,3.00
2018-05-08T03:26:07.344Z,2.80
2018-05-08T03:28:34.852Z,2.57
2018-05-08T03:31:02.345Z,2.70
2018-05-08T03:33:29.859Z,3.93
2018-05-08T03:35:57.357Z,5.07
2018-05-08T03:38:24.913Z,3.70
2018-05-08T03:40:52.397Z,3.83
2018-05-08T03:43:19.885Z,3.10
2018-05-08T03:45:48.156Z,3.20
2018-05-08T03:48:16.409Z,3.53
2018-05-08T03:50:43.913Z,3.57
2018-05-08T03:53:11.414Z,3.00
2018-05-08T03:55:38.917Z,2.97
2018-05-08T03:58:07.169Z,2.70
2018-05-08T04:00:47.217Z,3.33
2018-05-08T04:03:26.562Z,2.97
2018-05-08T04:05:59.681Z,3.20
2018-05-08T04:08:30.957Z,3.37
2018-05-08T04:10:58.471Z,3.40
2018-05-08T04:13:26.949Z,3.13
2018-05-08T04:15:55.221Z,3.43
2018-05-08T04:18:22.716Z,3.23
2018-05-08T04:20:50.213Z,3.43
2018-05-08T04:23:17.720Z,3.17
2018-05-08T04:25:45.981Z,2.90
2018-05-08T04:28:14.265Z,3.20
2018-05-08T04:30:42.524Z,3.67
2018-05-08T04:33:10.893Z,3.50
2018-05-08T04:35:38.382Z,3.20
2018-05-08T04:38:06.653Z,3.87
2018-05-08T04:40:34.150Z,4.07
2018-05-08T04:43:01.666Z,3.93
2018-05-08T04:45:29.202Z,3.60
2018-05-08T04:47:57.494Z,3.60
2018-05-08T04:50:24.997Z,3.90
2018-05-08T04:52:52.479Z,3.10
2018-05-08T04:55:19.984Z,3.90
2018-05-08T04:57:47.477Z,4.07
2018-05-08T05:00:14.986Z,4.40
2018-05-08T05:02:42.490Z,3.90
2018-05-08T05:05:10.765Z,3.90
2018-05-08T05:07:38.256Z,4.50
2018-05-08T05:10:05.750Z,3.40
2018-05-08T05:12:33.267Z,3.50
2018-05-08T05:15:00.749Z,2.83
2018-05-08T05:17:28.273Z,3.70
2018-05-08T05:19:55.753Z,3.77
2018-05-08T05:22:23.257Z,4.20
2018-05-08T05:24:51.502Z,3.60
2018-05-08T05:27:19.006Z,3.17
2018-05-08T05:29:47.271Z,3.40
2018-05-08T05:32:15.536Z,3.57
2018-05-08T05:34:43.044Z,3.70
2018-05-08T05:37:10.530Z,3.43
2018-05-08T05:39:38.277Z,3.87
2018-05-08T05:42:05.761Z,3.83
2018-05-08T05:44:33.274Z,4.30
2018-05-08T05:47:00.759Z,3.73
2018-05-08T05:49:28.272Z,4.13
2018-05-08T05:51:56.535Z,3.97
2018-05-08T05:54:24.038Z,3.90
2018-05-08T05:56:51.525Z,3.70
2018-05-08T05:59:19.006Z,3.80
2018-05-08T06:01:46.518Z,3.70
2018-05-08T06:04:14.014Z,3.67
2018-05-08T06:06:41.550Z,3.63
2018-05-08T06:09:09.047Z,3.50
2018-05-08T06:11:36.554Z,4.30
2018-05-08T06:14:04.057Z,3.80
2018-05-08T06:16:31.565Z,3.80
2018-05-08T06:18:59.054Z,4.50
2018-05-08T06:21:26.537Z,3.60
2018-05-08T06:23:54.034Z,4.20
2018-05-08T06:26:21.515Z,3.50
2018-05-08T06:28:49.071Z,4.20
2018-05-08T06:31:16.564Z,3.73
2018-05-08T06:33:44.188Z,3.80
2018-05-08T06:36:11.697Z,3.87
2018-05-08T06:38:39.213Z,3.63
2018-05-08T06:41:06.701Z,3.30
2018-05-08T06:43:34.260Z,3.73
2018-05-08T06:46:01.782Z,4.00
2018-05-08T06:48:29.265Z,3.70
2018-05-08T06:50:56.780Z,3.30
2018-05-08T06:53:25.035Z,4.50
2018-05-08T06:55:52.536Z,3.97
2018-05-08T06:58:20.026Z,3.40
2018-05-08T07:00:47.537Z,3.80
2018-05-08T07:03:15.791Z,4.00
2018-05-08T07:05:43.278Z,3.70
2018-05-08T07:08:10.782Z,3.90
2018-05-08T07:10:38.301Z,3.50
2018-05-08T07:13:05.813Z,3.37
2018-05-08T07:15:33.317Z,3.87
2018-05-08T07:18:01.581Z,2.97
2018-05-08T07:20:29.838Z,3.83
2018-05-08T07:22:57.341Z,3.40
2018-05-08T07:25:24.830Z,3.57
2018-05-08T07:27:52.326Z,3.67
2018-05-08T07:30:19.833Z,3.50
2018-05-08T07:32:47.331Z,3.70
2018-05-08T07:35:14.846Z,3.20
2018-05-08T07:37:42.338Z,3.40
2018-05-08T07:40:09.845Z,3.40
2018-05-08T07:42:37.344Z,3.27
2018-05-08T07:45:04.859Z,3.03
2018-05-08T07:47:32.352Z,3.30
2018-05-08T07:49:59.847Z,3.10
2018-05-08T07:52:27.368Z,3.00
2018-05-08T07:54:54.871Z,3.43
2018-05-08T07:57:22.371Z,3.03
2018-05-08T07:59:49.863Z,3.30
2018-05-08T08:02:17.398Z,3.47
2018-05-08T08:04:44.885Z,3.00
2018-05-08T08:07:12.404Z,3.20
2018-05-08T08:09:39.918Z,3.47
2018-05-08T08:12:07.409Z,2.73
2018-05-08T08:14:35.692Z,3.50
2018-05-08T08:17:03.182Z,2.80
2018-05-08T08:19:30.687Z,3.30
2018-05-08T08:21:58.179Z,4.20
2018-05-08T08:24:25.709Z,2.80
2018-05-08T08:26:53.965Z,2.97
2018-05-08T08:29:21.486Z,3.30
2018-05-08T08:31:48.987Z,3.53
2018-05-08T08:34:16.506Z,3.43
2018-05-08T08:36:44.003Z,3.10
2018-05-08T08:39:11.495Z,2.93
2018-05-08T08:41:39.765Z,3.00
2018-05-08T08:44:07.262Z,2.63
2018-05-08T08:46:34.846Z,3.10
2018-05-08T08:49:03.108Z,3.10
2018-05-08T08:51:30.568Z,2.80
2018-05-08T08:53:58.067Z,2.90
2018-05-08T08:56:25.592Z,2.77
2018-05-08T08:58:53.087Z,2.83
2018-05-08T09:01:20.576Z,3.17
2018-05-08T09:03:48.839Z,3.47
2018-05-08T09:06:17.112Z,3.00
2018-05-08T09:08:45.389Z,3.30
2018-05-08T09:11:12.903Z,2.50
2018-05-08T09:13:40.450Z,3.10
2018-05-08T09:16:07.944Z,3.07
2018-05-08T09:18:35.462Z,2.63
2018-05-08T09:21:02.962Z,2.90
2018-05-08T09:23:30.467Z,3.00
2018-05-08T09:25:57.981Z,2.90
2018-05-08T09:28:25.474Z,3.67
2018-05-08T09:30:53.000Z,3.17
2018-05-08T09:33:20.496Z,2.70
2018-05-08T09:35:48.782Z,2.97
2018-05-08T09:38:16.283Z,2.70
2018-05-08T09:40:43.802Z,2.57
2018-05-08T09:43:11.302Z,2.73
2018-05-08T09:45:38.809Z,2.40
2018-05-08T09:48:07.086Z,3.10
2018-05-08T09:50:35.381Z,2.93
2018-05-08T09:53:02.907Z,2.90
2018-05-08T09:55:30.405Z,2.40
2018-05-08T09:57:57.918Z,2.60
2018-05-08T10:00:25.419Z,2.67
2018-05-08T10:02:52.983Z,2.73
2018-05-08T10:05:21.210Z,3.10
2018-05-08T10:07:48.710Z,2.63
2018-05-08T10:10:16.237Z,2.70
2018-05-08T10:12:43.741Z,2.53
2018-05-08T10:15:11.246Z,2.60
2018-05-08T10:17:38.744Z,2.10
2018-05-08T10:20:06.277Z,2.90
2018-05-08T10:22:33.766Z,2.40
2018-05-08T10:25:01.512Z,3.03
2018-05-08T10:27:29.790Z,2.40
2018-05-08T10:29:58.046Z,2.33
2018-05-08T10:32:25.562Z,2.40
2018-05-08T10:34:53.046Z,2.97
2018-05-08T10:37:20.558Z,3.07
2018-05-08T10:39:48.048Z,2.40
2018-05-08T10:42:15.578Z,2.70
2018-05-08T10:44:43.890Z,2.30
2018-05-08T10:47:11.398Z,1.53
2018-05-08T10:49:39.815Z,2.20
2018-05-08T10:52:07.332Z,2.17
2018-05-08T10:54:35.585Z,2.33
2018-05-08T10:57:03.093Z,1.90
2018-05-08T10:59:30.585Z,2.40
2018-05-08T11:01:58.078Z,2.63
2018-05-08T11:04:25.697Z,2.13
2018-05-08T11:06:53.189Z,1.80
2018-05-08T11:09:20.698Z,2.23
2018-05-08T11:11:48.184Z,2.07
2018-05-08T11:14:15.757Z,2.00
2018-05-08T11:16:43.241Z,2.00
2018-05-08T11:19:10.746Z,2.40
2018-05-08T11:21:39.002Z,2.60
2018-05-08T11:24:06.517Z,2.10
2018-05-08T11:26:34.036Z,1.70
2018-05-08T11:29:01.513Z,1.70
2018-05-08T11:31:29.021Z,2.03
2018-05-08T11:33:57.281Z,1.70
2018-05-08T11:36:24.786Z,2.23
2018-05-08T11:38:52.282Z,2.37
2018-05-08T11:41:19.796Z,2.13
2018-05-08T11:43:47.281Z,2.27
2018-05-08T11:46:14.804Z,2.40
2018-05-08T11:48:43.065Z,2.10
2018-05-08T11:51:10.563Z,2.20
2018-05-08T11:53:38.074Z,1.73
2018-05-08T11:56:05.563Z,2.20
2018-05-08T11:58:33.075Z,2.30
2018-05-08T12:01:00.585Z,1.77
2018-05-08T12:03:28.088Z,2.10
2018-05-08T12:05:55.575Z,2.13
2018-05-08T12:08:23.053Z,2.20
2018-05-08T12:10:51.313Z,2.63
2018-05-08T12:13:18.789Z,2.33
2018-05-08T12:15:47.069Z,2.23
2018-05-08T12:18:15.326Z,2.10
2018-05-08T12:20:42.839Z,2.27
2018-05-08T12:23:10.336Z,1.80
2018-05-08T12:25:37.865Z,1.90
2018-05-08T12:28:05.368Z,1.93
2018-05-08T12:30:32.863Z,2.10
2018-05-08T12:33:00.390Z,2.30
2018-05-08T12:35:28.646Z,2.27
2018-05-08T12:37:56.145Z,1.80
2018-05-08T12:40:24.395Z,2.30
2018-05-08T12:42:51.916Z,2.50
2018-05-08T12:45:19.400Z,1.67
2018-05-08T12:47:46.885Z,2.30
2018-05-08T12:50:14.385Z,2.33
2018-05-08T12:52:41.874Z,2.13
2018-05-08T12:55:09.387Z,2.23
2018-05-08T12:57:36.870Z,1.90
2018-05-08T13:00:04.375Z,2.17
2018-05-08T13:02:32.630Z,2.80
2018-05-08T13:05:00.113Z,2.00
2018-05-08T13:07:28.385Z,2.70
2018-05-08T13:09:56.646Z,2.27
2018-05-08T13:12:24.169Z,2.33
2018-05-08T13:14:51.659Z,2.40
2018-05-08T13:17:19.170Z,2.40
2018-05-08T13:19:46.663Z,2.03
2018-05-08T13:22:14.171Z,2.20
2018-05-08T13:24:42.443Z,2.10
2018-05-08T13:27:10.705Z,2.97
2018-05-08T13:29:38.213Z,2.00
2018-05-08T13:32:05.702Z,2.37
2018-05-08T13:34:33.205Z,2.20
2018-05-08T13:37:01.835Z,2.53
2018-05-08T13:39:29.347Z,2.80
2018-05-08T13:41:57.711Z,2.40
2018-05-08T13:44:25.113Z,2.13
2018-05-08T13:46:52.615Z,2.30
2018-05-08T13:49:20.100Z,2.53
2018-05-08T13:51:48.410Z,1.97
2018-05-08T13:54:16.030Z,2.50
2018-05-08T13:56:43.596Z,2.40
2018-05-08T13:59:12.075Z,1.80
2018-05-08T14:01:40.363Z,2.27
2018-05-08T14:04:07.849Z,2.13
2018-05-08T14:06:35.400Z,2.00
2018-05-08T14:09:02.866Z,2.17
2018-05-08T14:11:30.367Z,2.10
2018-05-08T14:13:57.878Z,2.27
2018-05-08T14:16:25.388Z,2.20
2018-05-08T14:18:52.908Z,2.73
2018-05-08T14:21:20.411Z,2.27
2018-05-08T14:23:47.930Z,2.30
2018-05-08T14:26:15.431Z,1.83
2018-05-08T14:28:42.936Z,2.20
2018-05-08T14:31:10.454Z,2.20
2018-05-08T14:33:37.969Z,2.80
2018-05-08T14:36:05.496Z,2.30
2018-05-08T14:38:33.846Z,2.30
2018-05-08T14:41:02.056Z,2.33
2018-05-08T14:43:29.554Z,2.20
2018-05-08T14:45:57.057Z,2.47
2018-05-08T14:48:25.315Z,2.70
2018-05-08T14:50:52.828Z,2.30
2018-05-08T14:53:20.325Z,2.47
2018-05-08T14:55:47.815Z,2.83
2018-05-08T14:58:16.083Z,2.30
2018-05-08T15:00:43.588Z,2.37
2018-05-08T15:03:11.095Z,2.37
2018-05-08T15:05:38.580Z,2.50
2018-05-08T15:08:06.856Z,2.37
2018-05-08T15:10:35.106Z,2.10
2018-05-08T15:13:02.625Z,2.40
2018-05-08T15:15:30.115Z,2.47
2018-05-08T15:17:57.605Z,2.27
2018-05-08T15:20:25.873Z,2.50
2018-05-08T15:22:53.363Z,2.60
2018-05-08T15:25:21.094Z,2.50
2018-05-08T15:27:49.360Z,2.57
2018-05-08T15:30:16.878Z,2.80
2018-05-08T15:32:45.239Z,3.30
2018-05-08T15:35:12.748Z,2.60
2018-05-08T15:37:40.588Z,2.60
2018-05-08T15:40:08.082Z,2.37
2018-05-08T15:42:35.586Z,2.67
2018-05-08T15:45:03.070Z,2.23
2018-05-08T15:47:30.607Z,2.63
2018-05-08T15:49:58.099Z,2.70
2018-05-08T15:52:25.609Z,2.40
2018-05-08T15:54:53.857Z,2.70
2018-05-08T15:57:21.363Z,2.70
2018-05-08T15:59:48.862Z,5.80
2018-05-08T16:02:16.672Z,5.50
2018-05-08T16:04:44.081Z,3.03
2018-05-08T16:07:11.570Z,2.57
2018-05-08T16:09:39.073Z,2.60
2018-05-08T16:12:06.558Z,3.47
2018-05-08T16:14:34.292Z,2.63
2018-05-08T16:17:01.782Z,2.30
2018-05-08T16:19:29.307Z,2.63
2018-05-08T16:21:56.805Z,3.27
2018-05-08T16:24:24.290Z,3.30
2018-05-08T16:26:52.563Z,2.87
2018-05-08T16:29:20.060Z,3.33
2018-05-08T16:31:47.580Z,2.53
2018-05-08T16:34:15.851Z,3.60
2018-05-08T16:36:43.368Z,4.27
2018-05-08T16:39:10.859Z,4.00
2018-05-08T16:41:38.367Z,5.87
2018-05-08T16:44:05.880Z,6.67
2018-05-08T16:46:33.383Z,3.00
2018-05-08T16:49:00.899Z,3.13
2018-05-08T16:51:28.389Z,2.53
2018-05-08T16:53:56.696Z,2.93
2018-05-08T16:56:24.923Z,2.60
2018-05-08T16:58:52.446Z,2.83
2018-05-08T17:01:19.942Z,5.27
2018-05-08T17:03:47.450Z,4.50
2018-05-08T17:06:14.954Z,3.00
2018-05-08T17:08:42.439Z,2.97
2018-05-08T17:11:09.955Z,3.40
2018-05-08T17:13:37.455Z,2.90
2018-05-08T17:16:05.731Z,2.80
2018-05-08T17:18:33.986Z,4.63
2018-05-08T17:21:01.499Z,2.53
2018-05-08T17:23:28.991Z,2.60
2018-05-08T17:25:56.498Z,2.53
2018-05-08T17:28:24.791Z,2.43
2018-05-08T17:30:52.305Z,2.20
2018-05-08T17:33:19.868Z,2.30
2018-05-08T17:35:47.310Z,3.00
2018-05-08T17:38:14.814Z,2.23
2018-05-08T17:40:42.300Z,2.30
2018-05-08T17:43:10.581Z,2.77
2018-05-08T17:45:38.121Z,3.50
2018-05-08T17:48:05.640Z,4.50
2018-05-08T17:50:33.126Z,5.20
2018-05-08T17:53:00.647Z,4.00
2018-05-08T17:55:28.923Z,3.63
2018-05-08T17:57:56.436Z,2.40
2018-05-08T18:00:23.929Z,3.60
2018-05-08T18:02:51.422Z,3.50
2018-05-08T18:05:19.717Z,2.90
2018-05-08T18:07:47.971Z,3.13
2018-05-08T18:10:16.271Z,3.80
2018-05-08T18:12:44.534Z,3.60
2018-05-08T18:15:12.813Z,3.10
2018-05-08T18:17:41.152Z,2.83
2018-05-08T18:20:08.643Z,2.90
2018-05-08T18:22:36.130Z,3.80
2018-05-08T18:25:03.636Z,3.23
2018-05-08T18:27:31.147Z,3.43
2018-05-08T18:29:58.644Z,3.00
2018-05-08T18:32:26.161Z,3.03
2018-05-08T18:34:53.660Z,2.30
2018-05-08T18:37:21.169Z,2.67
2018-05-08T18:39:49.451Z,3.20
2018-05-08T18:42:17.718Z,3.10
2018-05-08T18:44:45.974Z,2.10
2018-05-08T18:47:13.480Z,2.60
2018-05-08T18:49:41.017Z,3.07
2018-05-08T18:52:08.483Z,3.20
2018-05-08T18:54:35.998Z,3.10
2018-05-08T18:57:03.489Z,3.30
2018-05-08T18:59:31.772Z,3.63
2018-05-08T19:02:00.050Z,3.20
2018-05-08T19:04:28.329Z,2.77
2018-05-08T19:06:56.604Z,3.17
2018-05-08T19:09:24.952Z,3.20
2018-05-08T19:11:52.442Z,3.23
2018-05-08T19:14:20.723Z,3.03
2018-05-08T19:16:48.225Z,3.47
2018-05-08T19:19:21.458Z,2.90
2018-05-08T19:21:48.953Z,2.70
2018-05-08T19:24:22.100Z,3.40
2018-05-08T19:26:49.604Z,3.07
2018-05-08T19:29:22.921Z,3.37
2018-05-08T19:31:50.426Z,2.70
2018-05-08T19:34:18.709Z,2.90
2018-05-08T19:36:52.721Z,2.70
2018-05-08T19:39:20.969Z,3.00
2018-05-08T19:41:48.496Z,3.07
2018-05-08T19:44:15.990Z,2.63
2018-05-08T19:46:43.556Z,2.83
2018-05-08T19:49:11.255Z,2.67
2018-05-08T19:51:39.529Z,3.30
2018-05-08T19:54:07.790Z,2.87
2018-05-08T19:56:35.353Z,3.07
2018-05-08T19:59:02.849Z,2.93
2018-05-08T20:01:31.135Z,2.60
2018-05-08T20:03:58.635Z,2.90
2018-05-08T20:06:26.147Z,3.33
2018-05-08T20:08:53.711Z,2.67
2018-05-08T20:11:21.186Z,3.23
2018-05-08T20:13:48.709Z,2.80
2018-05-08T20:16:16.201Z,3.13
2018-05-08T20:18:43.733Z,2.90
2018-05-08T20:21:11.230Z,3.10
2018-05-08T20:23:38.749Z,3.27
2018-05-08T20:26:06.262Z,3.13
2018-05-08T20:28:33.820Z,3.13
2018-05-08T20:31:01.323Z,3.00
2018-05-08T20:33:28.844Z,2.70
2018-05-08T20:35:56.349Z,2.57
2018-05-08T20:38:23.845Z,2.93
2018-05-08T20:40:51.361Z,3.10
2018-05-08T20:43:19.616Z,3.10
2018-05-08T20:45:47.150Z,2.90
2018-05-08T20:48:14.650Z,3.30
2018-05-08T20:50:43.157Z,2.83
2018-05-08T20:53:10.877Z,3.13
2018-05-08T20:55:38.441Z,3.40
2018-05-08T20:58:05.918Z,2.90
2018-05-08T21:00:34.204Z,2.60
2018-05-08T21:03:01.685Z,3.13
2018-05-08T21:05:29.184Z,2.97
2018-05-08T21:07:56.706Z,2.90
2018-05-08T21:10:24.211Z,3.17
2018-05-08T21:12:52.502Z,3.17
2018-05-08T21:15:20.756Z,3.40
2018-05-08T21:17:48.292Z,3.30
2018-05-08T21:20:15.802Z,4.10
2018-05-08T21:22:44.086Z,3.90
2018-05-08T21:25:12.348Z,3.97
2018-05-08T21:27:46.476Z,3.77
2018-05-08T21:30:19.698Z,3.27
2018-05-08T21:32:47.214Z,3.00
2018-05-08T21:35:15.473Z,2.47
2018-05-08T21:37:42.968Z,2.80
2018-05-08T21:40:10.509Z,2.60
2018-05-08T21:42:38.765Z,3.20
2018-05-08T21:45:06.287Z,3.23
2018-05-08T21:47:33.782Z,2.80
2018-05-08T21:50:01.312Z,3.17
2018-05-08T21:52:28.808Z,3.07
2018-05-08T21:54:56.318Z,3.03
2018-05-08T21:57:23.814Z,3.47
2018-05-08T21:59:51.304Z,3.20
2018-05-08T22:02:18.841Z,3.40
2018-05-08T22:04:46.345Z,3.20
2018-05-08T22:07:13.857Z,2.63
2018-05-08T22:09:41.350Z,3.40
2018-05-08T22:12:08.866Z,3.07
2018-05-08T22:14:36.369Z,3.10
2018-05-08T22:17:04.872Z,3.10
2018-05-08T22:19:32.370Z,3.20
2018-05-08T22:21:59.875Z,3.27
2018-05-08T22:24:28.158Z,3.00
2018-05-08T22:26:55.663Z,2.70
2018-05-08T22:29:23.181Z,3.30
2018-05-08T22:31:50.683Z,3.90
2018-05-08T22:34:18.189Z,3.07
2018-05-08T22:36:46.462Z,3.30
2018-05-08T22:39:14.003Z,3.03
2018-05-08T22:41:41.495Z,3.37
2018-05-08T22:44:09.011Z,3.63
2018-05-08T22:46:36.527Z,2.90
2018-05-08T22:49:04.020Z,3.53
2018-05-08T22:51:31.534Z,3.17
2018-05-08T22:53:59.258Z,2.93
2018-05-08T22:56:26.765Z,2.97
2018-05-08T22:58:54.262Z,3.17
2018-05-08T23:01:21.777Z,3.37
2018-05-08T23:03:49.492Z,3.77
2018-05-08T23:06:16.997Z,3.60
2018-05-08T23:08:44.523Z,4.00
2018-05-08T23:11:12.001Z,3.80
2018-05-08T23:13:40.285Z,3.80
2018-05-08T23:16:07.780Z,3.77
2018-05-08T23:18:35.293Z,3.67
2018-05-08T23:21:03.547Z,3.60
2018-05-08T23:23:31.072Z,3.37
2018-05-08T23:25:58.562Z,3.57
2018-05-08T23:28:26.065Z,3.33
2018-05-08T23:30:53.569Z,3.33
2018-05-08T23:33:21.081Z,3.40
2018-05-08T23:35:48.582Z,3.73
2018-05-08T23:38:16.089Z,3.60
2018-05-08T23:40:44.569Z,3.13
2018-05-08T23:43:13.084Z,3.20
2018-05-08T23:45:40.608Z,3.50
2018-05-08T23:48:08.870Z,3.20
2018-05-08T23:50:36.394Z,3.80
2018-05-08T23:53:03.890Z,3.13
2018-05-08T23:55:31.414Z,3.53
2018-05-08T23:57:58.905Z,3.47
